Time;durP1;ratioP1;P1;durP2;ratioP2;P2;SDS_P1;SDS_P2;PMS_P1;PMS_P2;Temp;Humidity;BMP_temperature;BMP_pressure;BME280_temperature;BME280_humidity;BME280_pressure;Samples;Min_cycle;Max_cycle;Signal;HPM_P1;HPM_P2
2021/12/29 00:00:25;;;;;;;4.00;3.10;;;19.50;36.50;;;23.17;24.06;99315.97;5077834;28;20055;-77
2021/12/29 00:02:51;;;;;;;3.78;3.10;;;19.50;36.40;;;23.17;24.08;99317.78;5094832;28;20054;-77
2021/12/29 00:05:18;;;;;;;4.63;3.53;;;19.50;36.40;;;23.15;24.20;99320.59;5060980;28;20040;-77
2021/12/29 00:07:43;;;;;;;3.58;2.88;;;19.50;36.40;;;23.17;24.25;99331.97;5091965;28;20488;-77
2021/12/29 00:10:11;;;;;;;3.88;3.05;;;19.50;36.50;;;23.18;24.02;99340.81;5077092;28;20048;-77
2021/12/29 00:12:42;;;;;;;4.03;3.58;;;19.50;36.50;;;23.21;24.21;99348.50;5092836;28;20496;-77
2021/12/29 00:15:10;;;;;;;3.55;3.10;;;19.50;36.50;;;23.15;24.02;99335.75;5077980;28;20048;-77
2021/12/29 00:17:39;;;;;;;3.97;3.33;;;19.50;36.50;;;23.18;24.26;99344.28;5093574;28;20051;-77
2021/12/29 00:20:06;;;;;;;4.03;3.38;;;19.50;36.40;;;23.19;24.19;99353.13;5116041;28;20134;-77
2021/12/29 00:22:32;;;;;;;4.18;3.20;;;19.50;36.50;;;23.18;24.09;99354.97;5080607;28;20464;-77
2021/12/29 00:24:57;;;;;;;4.18;2.97;;;19.50;36.40;;;23.18;23.98;99354.13;5081256;28;20047;-77
2021/12/29 00:27:23;;;;;;;3.95;2.90;;;19.50;36.50;;;23.18;24.04;99351.47;5096461;28;20056;-77
2021/12/29 00:29:49;;;;;;;4.60;3.17;;;19.50;36.50;;;23.20;24.12;99366.31;5080626;28;20555;-77
2021/12/29 00:32:33;;;;;;;3.78;3.40;;;19.50;36.50;;;23.18;24.11;99362.97;5100834;28;20403;-77
2021/12/29 00:35:18;;;;;;;3.60;2.95;;;19.50;36.50;;;23.18;24.17;99372.78;5100788;28;20058;-77
2021/12/29 00:38:14;;;;;;;3.42;2.92;;;19.50;36.50;;;23.19;24.01;99374.47;5101696;28;20051;-77
2021/12/29 00:40:59;;;;;;;3.38;3.03;;;19.50;36.50;;;23.16;24.06;99366.78;5100648;28;20452;-77
2021/12/29 00:43:50;;;;;;;3.80;3.08;;;19.50;36.50;;;23.17;24.11;99376.44;5101010;28;20048;-77
2021/12/29 00:46:42;;;;;;;3.53;3.22;;;19.50;36.50;;;23.18;24.34;99383.47;5063269;28;20044;-77
2021/12/29 00:49:08;;;;;;;3.72;3.17;;;19.50;36.50;;;23.17;24.07;99393.28;5097298;28;20517;-77
2021/12/29 00:51:35;;;;;;;3.08;2.70;;;19.50;36.50;;;23.16;24.07;99398.78;5080283;28;20422;-77
2021/12/29 00:54:02;;;;;;;3.65;2.90;;;19.50;36.50;;;23.15;24.22;99400.56;5097202;28;20046;-77
2021/12/29 00:56:27;;;;;;;3.50;2.90;;;19.50;36.50;;;23.13;24.07;99408.72;5115346;28;20475;-77
2021/12/29 00:58:53;;;;;;;3.50;2.95;;;19.50;36.50;;;23.16;24.20;99412.94;5059568;28;20036;-77
2021/12/29 01:01:19;;;;;;;3.85;3.22;;;19.50;36.50;;;23.19;24.08;99425.13;5097122;28;20047;-77
2021/12/29 01:03:46;;;;;;;3.40;3.08;;;19.50;36.50;;;23.17;24.28;99422.63;5097127;28;20486;-77
2021/12/29 01:06:12;;;;;;;3.00;2.70;;;19.50;36.50;;;23.16;24.18;99420.94;5080735;28;20039;-77
2021/12/29 01:08:38;;;;;;;3.72;3.03;;;19.50;36.50;;;23.17;24.11;99416.44;5096891;28;20135;-77
2021/12/29 01:11:05;;;;;;;3.58;3.03;;;19.50;36.50;;;23.17;24.27;99435.97;5097178;28;20074;-77
2021/12/29 01:13:33;;;;;;;3.60;3.10;;;19.50;36.50;;;23.16;24.16;99442.25;5096974;28;20035;-77
2021/12/29 01:18:32;;;;;;;4.72;3.28;;;19.50;36.50;;;23.10;24.17;99449.03;5115325;28;20395;-77
2021/12/29 01:20:58;;;;;;;3.75;3.10;;;19.50;36.50;;;23.15;24.01;99450.41;5078194;28;20044;-77
2021/12/29 01:23:24;;;;;;;3.90;3.00;;;19.50;36.50;;;23.18;24.17;99456.28;5097114;28;20039;-77
2021/12/29 01:25:50;;;;;;;2.95;2.65;;;19.50;36.50;;;23.18;24.11;99464.28;5096811;28;20043;-77
2021/12/29 01:28:15;;;;;;;3.15;2.85;;;19.50;36.50;;;23.15;24.05;99461.91;5096732;28;20134;-77
2021/12/29 01:30:43;;;;;;;3.63;2.92;;;19.50;36.50;;;23.13;24.09;99467.38;5093807;28;20047;-77
2021/12/29 01:33:08;;;;;;;3.28;2.75;;;19.50;36.50;;;23.16;24.17;99470.75;5080184;28;20047;-77
2021/12/29 01:35:36;;;;;;;4.03;3.30;;;19.50;36.50;;;23.17;24.12;99475.09;5115387;28;20043;-77
2021/12/29 01:38:03;;;;;;;3.28;2.97;;;19.50;36.60;;;23.16;24.13;99482.25;5114819;28;20082;-77
2021/12/29 01:40:31;;;;;;;3.85;3.13;;;19.50;36.60;;;23.17;24.10;99486.63;5096806;28;20075;-77
2021/12/29 01:42:57;;;;;;;3.47;2.85;;;19.50;36.60;;;23.14;24.30;99484.25;5096557;28;20046;-77
2021/12/29 01:45:24;;;;;;;3.65;3.08;;;19.50;37.10;;;23.16;24.10;99487.59;5079074;28;20059;-77
2021/12/29 01:47:50;;;;;;;3.97;3.55;;;19.50;36.60;;;23.15;24.25;99479.72;5079843;28;20047;-77
2021/12/29 01:50:18;;;;;;;3.22;2.92;;;19.50;36.50;;;23.15;24.08;99491.22;5096454;28;20048;-77
2021/12/29 01:52:53;;;;;;;3.72;3.25;;;19.50;36.60;;;23.18;24.16;99503.44;5096437;28;20047;-77
2021/12/29 01:55:19;;;;;;;3.90;3.08;;;19.50;36.50;;;23.17;23.93;99501.75;5097509;28;20051;-77
2021/12/29 01:57:45;;;;;;;3.20;2.80;;;19.50;36.50;;;23.17;24.14;99515.09;5094896;28;20068;-77
2021/12/29 02:00:20;;;;;;;4.57;3.20;;;19.50;36.50;;;23.17;24.23;99515.09;5096377;28;20558;-77
2021/12/29 02:02:48;;;;;;;3.03;2.72;;;19.50;36.60;;;23.17;24.13;99521.28;5096364;28;20122;-77
2021/12/29 02:05:14;;;;;;;4.47;3.30;;;19.50;36.60;;;23.14;24.22;99513.56;5096188;28;20106;-77
2021/12/29 02:07:40;;;;;;;3.15;2.80;;;19.50;36.60;;;23.16;24.24;99510.75;5095081;28;20051;-77
2021/12/29 02:10:08;;;;;;;2.95;2.40;;;19.50;36.60;;;23.15;24.31;99504.56;5096260;28;20126;-77
2021/12/29 02:12:35;;;;;;;3.58;3.03;;;19.50;36.60;;;23.14;24.33;99505.56;5094082;28;20165;-77
2021/12/29 02:15:01;;;;;;;4.13;3.38;;;19.50;36.60;;;23.12;24.09;99502.19;5079042;28;20097;-77
2021/12/29 02:17:27;;;;;;;4.15;2.92;;;19.50;36.50;;;23.14;24.25;99508.22;5094695;28;20048;-77
2021/12/29 02:19:57;;;;;;;3.45;3.10;;;19.50;36.60;;;23.16;24.35;99521.44;5077259;28;20404;-77
2021/12/29 02:22:39;;;;;;;3.97;3.17;;;19.50;36.60;;;23.15;24.14;99531.22;5077118;28;20055;-77
2021/12/29 02:25:51;;;;;;;3.35;2.97;;;19.50;36.60;;;23.14;24.17;99534.91;5096369;28;20054;-77
2021/12/29 02:27:55;;;;;;;3.80;2.90;;;19.50;36.60;;;23.17;24.19;99539.94;5088154;28;20052;-77
2021/12/29 02:30:25;;;;;;;3.20;2.90;;;19.50;36.60;;;23.16;24.32;99538.25;5095740;28;20055;-77
2021/12/29 02:32:55;;;;;;;3.50;2.83;;;19.50;36.60;;;23.15;24.32;99539.22;5079135;28;20058;-77
2021/12/29 02:35:24;;;;;;;3.25;2.95;;;19.50;36.60;;;23.11;24.10;99544.00;5095884;28;20052;-77
2021/12/29 02:37:51;;;;;;;4.22;3.13;;;19.50;36.60;;;23.12;24.18;99543.03;5095335;28;20056;-77
2021/12/29 02:40:18;;;;;;;3.75;2.95;;;19.50;36.60;;;23.16;24.32;99559.59;5095491;28;20048;-77
2021/12/29 02:42:44;;;;;;;3.83;3.20;;;19.50;36.60;;;23.13;24.05;99557.19;5094790;28;20546;-77
2021/12/29 02:45:15;;;;;;;3.42;2.72;;;19.50;36.60;;;23.08;24.08;99557.63;5079030;28;20126;-77
2021/12/29 02:47:42;;;;;;;3.08;2.75;;;19.50;36.60;;;23.16;24.24;99564.91;5078917;28;20044;-77
2021/12/29 02:50:10;;;;;;;3.83;3.10;;;19.50;36.60;;;23.15;24.29;99567.72;5095110;28;20093;-77
2021/12/29 02:52:36;;;;;;;3.95;3.08;;;19.50;36.60;;;23.13;24.22;99574.03;5059647;28;20055;-77
2021/12/29 02:55:02;;;;;;;2.55;2.35;;;19.50;36.60;;;23.16;24.39;99580.09;5093238;28;20044;-77
2021/12/29 02:57:28;;;;;;;3.78;2.78;;;19.50;36.60;;;23.12;24.21;99579.50;5094781;28;20055;-77
2021/12/29 02:59:54;;;;;;;3.03;2.72;;;19.50;36.60;;;23.14;24.35;99593.56;5078921;28;20048;-77
2021/12/29 03:02:20;;;;;;;2.90;2.60;;;19.50;36.50;;;23.10;24.27;99579.66;5095218;28;20056;-77
2021/12/29 03:04:46;;;;;;;4.10;2.70;;;19.60;36.60;;;23.16;24.20;99588.09;5078482;28;20059;-77
2021/12/29 03:07:12;;;;;;;3.10;2.58;;;19.50;36.50;;;23.16;24.10;99585.41;5095164;28;20044;-77
2021/12/29 03:09:38;;;;;;;3.55;2.88;;;19.50;36.50;;;23.20;24.08;99603.63;5095136;28;20248;-77
2021/12/29 03:12:04;;;;;;;3.33;3.03;;;19.60;36.50;;;23.19;24.16;99604.63;5078454;28;20097;-77
2021/12/29 03:14:31;;;;;;;3.05;2.75;;;19.60;36.50;;;23.22;24.25;99609.69;5094162;28;20059;-77
2021/12/29 03:16:57;;;;;;;2.58;2.38;;;19.60;36.40;;;23.22;24.21;99608.84;5078307;28;20415;-77
2021/12/29 03:19:23;;;;;;;3.00;2.70;;;19.60;36.40;;;23.24;24.19;99618.41;5076022;28;20048;-77
2021/12/29 03:21:50;;;;;;;3.35;2.75;;;19.60;36.40;;;23.24;24.23;99620.22;5094910;28;20055;-77
2021/12/29 03:24:18;;;;;;;3.53;2.95;;;19.60;36.40;;;23.24;24.16;99615.72;5078317;28;20055;-77
2021/12/29 03:26:44;;;;;;;3.03;2.72;;;19.70;36.40;;;23.26;24.26;99628.94;5093820;28;20499;-77
2021/12/29 03:29:10;;;;;;;3.15;2.85;;;19.70;36.40;;;23.27;24.25;99626.13;5077780;28;20487;-77
2021/12/29 03:31:38;;;;;;;3.28;2.65;;;19.70;36.40;;;23.27;24.18;99620.78;5077639;28;20051;-77
2021/12/29 03:34:05;;;;;;;3.28;2.80;;;19.70;36.30;;;23.30;24.15;99641.84;5095246;28;20575;-77
2021/12/29 03:36:31;;;;;;;3.47;2.65;;;19.70;36.30;;;23.27;24.15;99628.78;5077801;28;20096;-77
2021/12/29 03:38:57;;;;;;;3.08;2.70;;;19.70;36.30;;;23.31;24.11;99640.00;5094520;28;20043;-77
2021/12/29 03:41:24;;;;;;;3.70;2.90;;;19.80;36.30;;;23.28;23.95;99638.44;5094886;28;20126;-77
2021/12/29 03:43:51;;;;;;;3.55;3.15;;;19.80;36.30;;;23.33;24.20;99651.38;5112984;28;20052;-77
2021/12/29 03:46:19;;;;;;;2.80;2.53;;;19.80;36.30;;;23.35;24.14;99645.91;5077797;28;20047;-77
2021/12/29 03:48:46;;;;;;;3.00;2.75;;;19.80;36.30;;;23.39;24.05;99655.28;5112859;28;20058;-77
2021/12/29 03:51:12;;;;;;;2.90;2.60;;;19.80;36.30;;;23.39;24.16;99653.50;5094847;28;20483;-77
2021/12/29 03:53:38;;;;;;;2.92;2.67;;;19.80;36.20;;;23.41;24.09;99656.03;5080227;28;20502;-77
2021/12/29 03:56:05;;;;;;;2.95;2.63;;;19.80;36.20;;;23.41;24.09;99662.19;5098371;28;20058;-77
2021/12/29 03:58:32;;;;;;;3.13;2.70;;;19.80;36.20;;;23.40;24.01;99665.00;5097912;28;20057;-77
2021/12/29 04:01:06;;;;;;;3.55;3.08;;;19.80;36.20;;;23.41;24.22;99664.84;5081263;28;20044;-77
2021/12/29 04:03:32;;;;;;;2.78;2.47;;;19.90;36.20;;;23.44;24.09;99663.75;5098160;28;20142;-77
2021/12/29 04:05:58;;;;;;;3.50;2.75;;;19.90;36.20;;;23.44;24.28;99661.91;5098089;28;20444;-77
2021/12/29 04:08:24;;;;;;;2.45;2.20;;;19.90;36.20;;;23.45;24.13;99665.41;5098200;28;20078;-77
2021/12/29 04:10:49;;;;;;;3.10;2.63;;;19.90;36.20;;;23.42;24.03;99663.88;5081073;28;20070;-77
2021/12/29 04:13:15;;;;;;;3.13;2.70;;;19.90;36.20;;;23.46;23.97;99675.94;5097922;28;20051;-77
2021/12/29 04:15:41;;;;;;;2.85;2.65;;;19.90;36.20;;;23.45;24.02;99668.91;5097596;28;20043;-77
2021/12/29 04:18:26;;;;;;;3.10;2.50;;;19.90;36.20;;;23.49;24.07;99677.50;5116112;28;20453;-77
2021/12/29 04:20:59;;;;;;;3.25;2.65;;;19.90;36.10;;;23.48;24.25;99670.47;5100563;28;20048;-77
2021/12/29 04:23:29;;;;;;;2.75;2.40;;;19.90;36.10;;;23.51;24.04;99680.03;5097785;28;20093;-77
2021/12/29 04:25:56;;;;;;;3.10;2.45;;;20.00;36.10;;;23.50;24.13;99684.50;5097796;28;20522;-77
2021/12/29 04:28:26;;;;;;;2.40;2.20;;;20.00;36.20;;;23.49;24.06;99681.00;5096541;28;20148;-77
2021/12/29 04:30:56;;;;;;;3.53;2.80;;;19.90;36.10;;;23.50;23.96;99689.84;5081028;28;20043;-77
2021/12/29 04:33:23;;;;;;;3.13;2.72;;;19.90;36.10;;;23.51;24.06;99691.53;5080668;28;20403;-77
2021/12/29 04:35:51;;;;;;;3.25;2.67;;;19.90;36.10;;;23.53;24.20;99713.59;5097652;28;20055;-77
2021/12/29 04:38:17;;;;;;;3.03;2.70;;;19.90;36.10;;;23.54;24.21;99725.09;5095787;28;20056;-77
2021/12/29 04:40:43;;;;;;;2.40;2.20;;;19.90;36.10;;;23.53;24.02;99724.25;5097752;28;20135;-77
2021/12/29 04:43:09;;;;;;;3.08;2.75;;;19.90;36.10;;;23.55;24.13;99737.47;5079706;28;20051;-77
2021/12/29 04:45:35;;;;;;;3.10;2.70;;;19.90;36.10;;;23.54;24.05;99739.31;5080541;28;20105;-77
2021/12/29 04:48:01;;;;;;;3.13;2.83;;;19.90;36.10;;;23.54;24.13;99747.31;5080360;28;20048;-77
2021/12/29 04:50:30;;;;;;;2.85;2.60;;;19.90;36.10;;;23.56;24.00;99750.66;5080675;28;20055;-77
2021/12/29 04:53:00;;;;;;;3.17;2.72;;;20.00;36.10;;;23.55;24.14;99746.31;5097727;28;20047;-77
2021/12/29 04:55:29;;;;;;;2.53;2.33;;;19.90;36.10;;;23.58;23.93;99750.53;5080047;28;20058;-77
2021/12/29 04:57:56;;;;;;;2.83;2.40;;;19.90;36.10;;;23.56;23.99;99756.00;5097213;28;20043;-77
2021/12/29 05:00:28;;;;;;;2.95;2.72;;;20.00;36.10;;;23.55;23.98;99759.63;5080381;28;20059;-77
2021/12/29 05:02:55;;;;;;;2.67;2.38;;;19.90;36.10;;;23.57;24.03;99762.19;5080853;28;20047;-77
2021/12/29 05:08:29;;;;;;;2.60;2.40;;;20.00;36.10;;;23.60;24.01;99765.41;5049243;28;20047;-77
2021/12/29 05:11:07;;;;;;;2.70;2.38;;;20.00;36.10;;;23.57;24.12;99765.72;5096956;28;20054;-77
2021/12/29 05:13:38;;;;;;;2.67;2.33;;;20.00;36.10;;;23.56;24.07;99765.84;5080076;28;20181;-77
2021/12/29 05:16:06;;;;;;;2.90;2.60;;;20.00;36.10;;;23.60;24.01;99764.56;5097155;28;20048;-77
2021/12/29 05:18:35;;;;;;;2.83;2.50;;;20.00;36.20;;;23.60;23.97;99762.72;5096986;28;20050;-78
2021/12/29 05:21:04;;;;;;;2.85;2.60;;;20.00;36.10;;;23.58;23.80;99762.03;5096385;28;20051;-77
2021/12/29 05:23:30;;;;;;;3.83;3.03;;;20.00;36.10;;;23.56;23.96;99756.00;5096492;28;20040;-77
2021/12/29 05:25:56;;;;;;;3.30;2.58;;;20.00;36.10;;;23.60;23.97;99767.25;5096755;28;20548;-77
2021/12/29 05:28:24;;;;;;;2.90;2.60;;;20.00;36.10;;;23.58;23.87;99779.88;5096769;28;20043;-77
2021/12/29 05:30:51;;;;;;;2.67;2.47;;;20.00;36.10;;;23.60;23.92;99785.91;5062951;28;20050;-77
2021/12/29 05:33:16;;;;;;;2.75;2.55;;;20.00;36.10;;;23.61;23.83;99790.28;5114956;28;20074;-77
2021/12/29 05:35:42;;;;;;;3.08;2.40;;;20.00;36.10;;;23.59;23.79;99793.09;5096552;28;20055;-77
2021/12/29 05:38:09;;;;;;;2.45;2.25;;;20.00;36.10;;;23.59;23.91;99801.09;5096562;28;20039;-77
2021/12/29 05:40:35;;;;;;;2.97;2.58;;;20.00;36.10;;;23.61;23.99;99804.47;5096803;28;20071;-77
2021/12/29 05:43:01;;;;;;;2.67;2.33;;;20.00;36.10;;;23.60;23.91;99807.25;5096708;28;20081;-77
2021/12/29 05:45:29;;;;;;;3.00;2.70;;;20.00;36.10;;;23.58;23.99;99807.41;5096805;28;20044;-77
2021/12/29 05:47:56;;;;;;;3.47;2.78;;;20.00;36.10;;;23.61;23.99;99815.13;5114741;28;20096;-77
2021/12/29 05:50:26;;;;;;;2.70;2.40;;;20.00;36.10;;;23.62;23.84;99821.31;5096282;28;20058;-77
2021/12/29 05:52:53;;;;;;;2.80;2.47;;;20.00;36.10;;;23.60;24.01;99818.78;5096655;28;20126;-77
2021/12/29 05:55:20;;;;;;;3.05;2.60;;;20.00;36.10;;;23.62;23.95;99818.63;5096300;28;20113;-77
2021/12/29 05:57:47;;;;;;;2.72;2.15;;;20.00;36.10;;;23.62;23.83;99824.84;5079181;28;20135;-77
2021/12/29 06:00:18;;;;;;;3.45;2.90;;;20.00;36.10;;;23.58;23.90;99817.25;5094924;28;20067;-77
2021/12/29 06:02:45;;;;;;;1.77;1.67;;;20.00;36.10;;;23.64;23.99;99816.69;5079331;28;20104;-77
2021/12/29 06:05:11;;;;;;;2.95;2.58;;;20.00;36.70;;;23.63;24.03;99821.16;5114456;28;20044;-77
2021/12/29 06:07:37;;;;;;;4.13;2.85;;;20.00;36.10;;;23.64;23.80;99830.88;5095874;28;20054;-77
2021/12/29 06:10:05;;;;;;;3.40;2.67;;;20.00;36.10;;;23.64;24.07;99830.03;5079025;28;20043;-77
2021/12/29 06:12:31;;;;;;;2.60;2.33;;;20.00;36.10;;;23.62;24.08;99832.84;5095974;28;20039;-77
2021/12/29 06:14:57;;;;;;;3.15;2.45;;;20.00;36.10;;;23.63;23.83;99837.19;5093543;28;20055;-77
2021/12/29 06:17:23;;;;;;;2.22;2.03;;;20.10;36.10;;;23.63;23.94;99825.69;5094476;28;20446;-77
2021/12/29 06:19:49;;;;;;;3.38;2.70;;;20.00;36.10;;;23.62;23.90;99827.50;5094002;28;20135;-77
2021/12/29 06:22:14;;;;;;;2.97;2.50;;;20.00;36.10;;;23.64;24.11;99846.06;5095942;28;20110;-77
2021/12/29 06:24:42;;;;;;;2.55;2.35;;;20.00;36.10;;;23.64;23.94;99856.72;5078089;28;20492;-77
2021/12/29 06:27:09;;;;;;;3.03;2.60;;;20.00;36.10;;;23.63;23.96;99855.88;5079104;28;20547;-77
2021/12/29 06:29:36;;;;;;;2.90;2.58;;;20.00;36.10;;;23.64;23.88;99854.06;5078687;28;20165;-77
2021/12/29 06:32:03;;;;;;;2.97;2.55;;;20.00;36.10;;;23.65;24.18;99867.25;5078983;28;20044;-77
2021/12/29 06:34:30;;;;;;;2.60;2.38;;;20.00;36.10;;;23.63;23.85;99855.88;5078741;28;20901;-77
2021/12/29 06:36:58;;;;;;;2.92;2.63;;;20.00;36.10;;;23.66;23.87;99865.44;5095675;28;20043;-77
2021/12/29 06:39:24;;;;;;;2.50;2.30;;;20.00;36.10;;;23.63;23.96;99860.38;5113831;28;20051;-77
2021/12/29 06:41:50;;;;;;;2.95;2.58;;;20.00;36.10;;;23.65;23.86;99861.06;5114379;28;20043;-77
2021/12/29 06:44:15;;;;;;;2.78;2.28;;;20.00;36.10;;;23.67;23.76;99869.78;5095487;28;20055;-77
2021/12/29 06:46:41;;;;;;;3.22;2.50;;;20.00;36.10;;;23.67;23.79;99872.44;5095476;28;20124;-77
2021/12/29 06:49:07;;;;;;;2.75;2.33;;;20.00;36.10;;;23.67;23.96;99880.44;5076664;28;20047;-77
2021/12/29 06:51:33;;;;;;;2.42;2.22;;;20.00;36.10;;;23.64;24.00;99886.91;5095091;28;20054;-77
2021/12/29 06:53:58;;;;;;;2.95;2.30;;;20.00;36.10;;;23.66;23.79;99881.44;5113854;28;20048;-77
2021/12/29 06:56:24;;;;;;;3.55;2.63;;;20.00;36.10;;;23.65;23.85;99885.09;5095331;28;20138;-77
2021/12/29 06:58:50;;;;;;;2.60;2.40;;;20.10;36.20;;;23.68;23.98;99890.16;5078552;28;20036;-77
2021/12/29 07:01:16;;;;;;;2.55;2.35;;;20.00;36.10;;;23.67;24.08;99899.13;5078401;28;20044;-77
2021/12/29 07:03:43;;;;;;;3.03;2.50;;;20.00;36.10;;;23.66;23.84;99905.47;5095635;28;20048;-77
2021/12/29 07:06:08;;;;;;;2.78;2.25;;;20.10;36.20;;;23.66;24.02;99914.31;5095252;28;20055;-77
2021/12/29 07:08:34;;;;;;;2.90;2.60;;;20.00;36.10;;;23.66;23.94;99916.97;5095049;28;20047;-77
2021/12/29 07:11:01;;;;;;;2.30;2.10;;;20.00;36.10;;;23.66;24.04;99924.16;5078193;28;20044;-77
2021/12/29 07:13:27;;;;;;;2.40;2.20;;;20.00;36.10;;;23.68;23.83;99930.19;5093673;28;20047;-77
2021/12/29 07:15:52;;;;;;;2.88;2.40;;;20.10;36.10;;;23.65;24.15;99939.28;5059266;28;20040;-77
2021/12/29 07:18:18;;;;;;;3.00;2.70;;;20.10;36.10;;;23.65;23.97;99941.13;5113584;28;20058;-77
2021/12/29 07:20:44;;;;;;;2.97;2.65;;;20.10;36.20;;;23.66;24.00;99957.00;5113105;28;20059;-77
2021/12/29 07:23:11;;;;;;;2.95;2.60;;;20.10;36.10;;;23.68;23.92;99968.38;5095066;28;20083;-77
2021/12/29 07:25:37;;;;;;;2.83;2.35;;;20.10;36.10;;;23.66;23.88;99973.03;5094770;28;20081;-77
2021/12/29 07:28:03;;;;;;;2.80;2.33;;;20.10;36.10;;;23.68;24.03;99988.91;5076810;28;20066;-77
2021/12/29 07:30:30;;;;;;;2.60;2.33;;;20.10;36.10;;;23.67;23.84;99985.41;5094737;28;20518;-77
2021/12/29 07:32:56;;;;;;;2.50;2.30;;;20.10;36.10;;;23.70;24.00;99991.44;5094859;28;20059;-77
2021/12/29 07:35:23;;;;;;;2.53;2.15;;;20.10;36.20;;;23.66;24.02;99985.53;5113258;28;20039;-77
2021/12/29 07:37:50;;;;;;;2.72;2.45;;;20.10;36.10;;;23.70;23.90;100005.63;5094793;28;20043;-77
2021/12/29 07:40:17;;;;;;;2.92;2.47;;;20.10;36.10;;;23.67;23.94;100011.22;5094684;28;20052;-77
2021/12/29 07:42:44;;;;;;;2.90;2.60;;;20.10;36.10;;;23.71;23.96;100026.00;5094888;28;20048;-77
2021/12/29 07:45:11;;;;;;;2.60;2.35;;;20.10;36.10;;;23.71;23.97;100023.34;5094910;28;20051;-77
2021/12/29 07:47:44;;;;;;;2.55;2.35;;;20.10;36.10;;;23.70;23.87;100036.81;5093949;28;20052;-77
2021/12/29 07:50:10;;;;;;;2.63;2.35;;;20.10;36.10;;;23.71;23.90;100042.03;5078583;28;20048;-77
2021/12/29 07:52:36;;;;;;;3.22;2.55;;;20.10;36.10;;;23.72;23.89;100045.53;5093373;28;20048;-77
2021/12/29 07:55:02;;;;;;;2.53;2.10;;;20.10;36.10;;;23.72;24.15;100050.88;5092651;28;20147;-77
2021/12/29 07:57:27;;;;;;;2.95;2.50;;;20.10;36.20;;;23.67;23.91;100053.91;5077162;28;20059;-77
2021/12/29 07:59:53;;;;;;;2.63;2.33;;;20.10;36.10;;;23.70;23.89;100060.84;5060835;28;20051;-77
2021/12/29 08:02:26;;;;;;;2.70;2.50;;;20.10;36.20;;;23.70;23.89;100069.69;5095149;28;20047;-77
2021/12/29 08:04:52;;;;;;;2.67;2.40;;;20.10;36.20;;;23.70;23.97;100069.69;5078875;28;20048;-77
2021/12/29 08:07:17;;;;;;;2.30;2.10;;;20.10;36.20;;;23.71;23.78;100060.69;5077877;28;20047;-77
2021/12/29 08:09:43;;;;;;;2.70;2.50;;;20.10;36.20;;;23.74;24.00;100071.13;5094561;28;20047;-77
2021/12/29 08:12:09;;;;;;;2.30;2.10;;;20.10;36.10;;;23.72;23.92;100073.06;5094775;28;20043;-77
2021/12/29 08:14:35;;;;;;;3.17;2.40;;;20.10;36.10;;;23.72;23.96;100078.38;5094519;28;20043;-77
2021/12/29 08:17:02;;;;;;;2.70;2.30;;;20.10;36.10;;;23.73;23.93;100080.09;5094535;28;21459;-77
2021/12/29 08:19:28;;;;;;;2.50;2.30;;;20.10;36.10;;;23.72;23.83;100073.06;5076589;28;20040;-77
2021/12/29 08:21:54;;;;;;;2.45;2.15;;;20.10;36.10;;;23.73;23.98;100079.25;5094388;28;20051;-77
2021/12/29 08:24:20;;;;;;;2.22;2.03;;;20.10;36.10;;;23.73;24.01;100079.25;5094535;28;20512;-77
2021/12/29 08:26:46;;;;;;;2.67;2.30;;;20.20;36.20;;;23.72;23.86;100074.88;5077512;28;20044;-77
2021/12/29 08:29:11;;;;;;;2.70;2.25;;;20.20;36.20;;;23.72;23.93;100073.06;5094375;28;20054;-77
2021/12/29 08:31:37;;;;;;;2.38;2.17;;;20.10;36.10;;;23.76;23.82;100087.00;5092472;28;20093;-77
2021/12/29 08:34:03;;;;;;;2.58;2.38;;;20.10;36.10;;;23.74;24.01;100078.25;5094313;28;20059;-76
2021/12/29 08:36:29;;;;;;;3.28;2.50;;;20.10;36.10;;;23.75;23.90;100080.81;5077329;28;20047;-76
2021/12/29 08:38:55;;;;;;;3.10;2.38;;;20.10;36.10;;;23.75;24.00;100079.97;5093386;28;20044;-76
2021/12/29 08:41:20;;;;;;;2.50;2.13;;;20.10;36.10;;;23.76;23.77;100087.00;5115909;28;20043;-76
2021/12/29 08:43:47;;;;;;;2.55;2.30;;;20.10;36.10;;;23.75;23.97;100070.13;5097513;28;20085;-76
2021/12/29 08:46:15;;;;;;;2.78;2.40;;;20.10;36.00;;;23.75;23.93;100079.97;5079573;28;20070;-77
2021/12/29 08:48:42;;;;;;;3.10;2.45;;;20.10;36.10;;;23.75;23.79;100080.81;5078813;28;20059;-77
2021/12/29 08:51:09;;;;;;;2.50;2.30;;;20.10;36.10;;;23.76;23.93;100082.50;5080514;28;20067;-77
2021/12/29 08:53:36;;;;;;;2.80;2.53;;;20.10;36.10;;;23.76;23.92;100089.66;5097765;28;20039;-77
2021/12/29 08:56:02;;;;;;;2.80;2.33;;;20.20;36.10;;;23.76;23.81;100089.66;5097418;28;20052;-77
2021/12/29 08:58:28;;;;;;;2.55;2.35;;;20.10;36.10;;;23.75;23.91;100090.63;5079142;28;20044;-77
2021/12/29 09:00:56;;;;;;;1.90;1.80;;;20.20;36.10;;;23.75;23.80;100085.31;5097336;28;20088;-77
2021/12/29 09:03:22;;;;;;;2.33;1.92;;;20.10;36.00;;;23.77;23.71;100089.53;5080811;28;20138;-77
2021/12/29 09:05:48;;;;;;;2.45;2.25;;;20.10;36.00;;;23.78;23.96;100093.06;5097308;28;20047;-77
2021/12/29 09:08:14;;;;;;;2.92;2.28;;;20.10;36.60;;;23.76;24.05;100101.19;5097175;28;20051;-77
2021/12/29 09:10:41;;;;;;;2.50;2.20;;;20.10;36.10;;;23.76;23.84;100109.19;5097211;28;20138;-77
2021/12/29 09:13:08;;;;;;;2.67;2.20;;;20.10;36.10;;;23.78;23.96;100109.06;5097326;28;20059;-77
2021/12/29 09:15:33;;;;;;;3.17;2.47;;;20.20;36.10;;;23.80;24.00;100120.44;5097247;28;20040;-77
2021/12/29 09:17:59;;;;;;;2.42;2.22;;;20.10;36.10;;;23.80;23.90;100125.78;5080110;28;20381;-77
2021/12/29 09:20:30;;;;;;;2.92;2.58;;;20.10;36.00;;;23.77;24.11;100112.69;5096622;28;20056;-77
2021/12/29 09:23:06;;;;;;;3.13;2.35;;;20.10;36.10;;;23.77;23.99;100123.38;5080191;28;20043;-77
2021/12/29 09:25:33;;;;;;;2.35;2.15;;;20.10;36.10;;;23.77;23.82;100124.25;5097036;28;20040;-77
2021/12/29 09:27:59;;;;;;;2.50;2.30;;;20.10;36.10;;;23.77;23.98;100120.72;5096764;28;20048;-77
2021/12/29 09:30:29;;;;;;;2.55;2.20;;;20.10;36.00;;;23.76;23.93;100122.53;5115174;28;20063;-77
2021/12/29 09:32:55;;;;;;;2.60;2.40;;;20.10;36.00;;;23.80;23.98;100133.78;5096776;28;20060;-77
2021/12/29 09:35:22;;;;;;;2.78;2.42;;;20.20;36.70;;;23.76;23.74;100137.72;5114913;28;20043;-77
2021/12/29 09:37:51;;;;;;;2.58;2.38;;;20.20;36.10;;;23.74;24.12;100137.84;5095449;28;20127;-77
2021/12/29 09:40:21;;;;;;;2.65;2.20;;;20.20;36.10;;;23.73;23.85;100138.81;5079930;28;20044;-77
2021/12/29 09:42:52;;;;;;;2.28;2.08;;;20.20;36.10;;;23.78;23.74;100144.59;5097000;28;20047;-77
2021/12/29 09:45:20;;;;;;;2.70;2.40;;;20.10;36.00;;;23.77;23.77;100150.94;5078094;28;20077;-77
2021/12/29 09:47:46;;;;;;;2.47;2.17;;;20.20;36.10;;;23.78;23.93;100149.94;5077738;28;20048;-77
2021/12/29 09:50:15;;;;;;;2.08;1.88;;;20.20;36.10;;;23.76;23.92;100148.41;5095097;28;20048;-77
2021/12/29 09:52:42;;;;;;;2.28;2.03;;;20.20;36.10;;;23.79;23.88;100150.78;5095125;28;20059;-77
2021/12/29 09:55:13;;;;;;;3.35;2.45;;;20.10;36.10;;;23.79;23.85;100148.97;5077930;28;20044;-77
2021/12/29 09:57:45;;;;;;;2.65;2.20;;;20.10;36.10;;;23.76;23.98;100138.56;5077808;28;20135;-77
2021/12/29 10:00:31;;;;;;;1.70;1.60;;;20.10;36.10;;;23.77;24.03;100142.06;5114355;28;20052;-77
2021/12/29 10:03:01;;;;;;;2.28;2.08;;;20.10;36.10;;;23.76;23.73;100132.38;5096548;28;20499;-78
2021/12/29 10:05:30;;;;;;;2.55;2.35;;;20.10;36.10;;;23.79;23.88;100143.63;5079153;28;20410;-77
2021/12/29 10:08:14;;;;;;;2.53;1.98;;;20.10;36.10;;;23.77;23.86;100139.41;5078077;28;20056;-77
2021/12/29 10:10:47;;;;;;;2.60;2.17;;;20.10;36.10;;;23.77;23.91;100142.06;5059131;28;20040;-77
2021/12/29 10:13:13;;;;;;;2.58;2.30;;;20.20;36.10;;;23.77;23.96;100132.25;5096190;28;20122;-77
2021/12/29 10:15:43;;;;;;;2.03;1.90;;;20.20;36.10;;;23.76;24.04;100143.91;5096331;28;20429;-77
2021/12/29 10:18:14;;;;;;;2.35;2.05;;;20.20;36.10;;;23.80;23.76;100157.81;5095862;28;20127;-77
2021/12/29 10:20:55;;;;;;;2.47;2.22;;;20.20;36.10;;;23.79;24.02;100167.66;5059145;28;20135;-77
2021/12/29 10:23:28;;;;;;;2.95;2.40;;;20.20;36.00;;;23.81;23.99;100171.03;5062304;28;20142;-77
2021/12/29 10:25:56;;;;;;;2.75;2.42;;;20.20;36.10;;;23.79;23.81;100170.34;5096038;28;20056;-77